Time;durP1;ratioP1;P1;durP2;ratioP2;P2;SDS_P1;SDS_P2;PMS_P1;PMS_P2;Temp;Humidity;BMP_temperature;BMP_pressure;BME280_temperature;BME280_humidity;BME280_pressure;Samples;Min_cycle;Max_cycle;Signal;HPM_P1;HPM_P2
2021/11/14 00:01:23;;;;;;;18.70;9.20;;;;;;;-145.69;100.00;72063.09;5116216;28;20197;-78
2021/11/14 00:03:49;;;;;;;16.73;8.67;;;;;;;-145.69;100.00;72065.06;5116253;28;20687;-78
2021/11/14 00:06:20;;;;;;;17.80;9.03;;;;;;;-145.69;100.00;72071.03;5116324;28;20206;-78
2021/11/14 00:08:46;;;;;;;17.10;9.03;;;;;;;-145.69;100.00;72075.03;5116238;28;20287;-78
2021/11/14 00:11:14;;;;;;;19.20;9.27;;;;;;;-145.69;100.00;72090.94;5115899;28;20197;-78
2021/11/14 00:13:44;;;;;;;18.93;8.60;;;;;;;-145.69;100.00;72104.88;5115573;28;20202;-78
2021/11/14 00:16:12;;;;;;;14.70;7.60;;;;;;;-145.69;100.00;72124.78;5116462;28;20197;-78
2021/11/14 00:18:39;;;;;;;16.60;8.80;;;;;;;-145.69;100.00;72140.69;5116169;28;20209;-78
2021/11/14 00:21:06;;;;;;;17.90;8.57;;;;;;;-145.69;100.00;72158.63;5116126;28;20201;-78
2021/11/14 00:23:32;;;;;;;18.17;8.77;;;;;;;-145.69;100.00;72166.56;5115481;28;20229;-78
2021/11/14 00:26:00;;;;;;;15.97;8.73;;;;;;;-145.69;100.00;72190.47;5115459;28;20205;-78
2021/11/14 00:28:27;;;;;;;19.30;9.73;;;;;;;-145.69;100.00;72194.44;5116015;28;20197;-78
2021/11/14 00:30:55;;;;;;;20.27;8.97;;;;;;;-145.69;100.00;72204.38;5115899;28;20206;-78
2021/11/14 00:33:21;;;;;;;22.30;9.80;;;;;;;-145.69;100.00;72204.38;5115611;28;20228;-78
2021/11/14 00:35:52;;;;;;;19.13;8.70;;;;;;;-145.69;100.00;72198.41;5115834;28;20792;-78
2021/11/14 00:38:18;;;;;;;21.33;9.50;;;;;;;-145.69;100.00;72182.50;5115620;28;20747;-78
2021/11/14 00:40:45;;;;;;;22.33;9.97;;;;;;;-145.69;100.00;72172.53;5115497;28;20206;-78
2021/11/14 00:43:11;;;;;;;26.67;10.67;;;;;;;-145.69;100.00;72162.59;5115570;28;20205;-78
2021/11/14 00:45:40;;;;;;;26.87;10.87;;;;;;;-145.69;100.00;72154.63;5115366;28;20201;-78
2021/11/14 00:48:08;;;;;;;25.23;10.23;;;;;;;-145.69;100.00;72152.66;5115596;28;20288;-78
2021/11/14 00:50:38;;;;;;;22.07;10.07;;;;;;;-145.69;100.00;72146.69;5115105;28;20220;-78
2021/11/14 00:53:05;;;;;;;23.83;10.80;;;;;;;-145.69;100.00;72142.69;5115162;28;20225;-79
2021/11/14 00:55:34;;;;;;;23.97;10.00;;;;;;;-145.69;100.00;72134.72;5115362;28;20719;-79
2021/11/14 00:58:01;;;;;;;22.70;10.53;;;;;;;-145.69;100.00;72134.72;5115461;28;20201;-78
2021/11/14 01:00:30;;;;;;;21.17;8.53;;;;;;;-145.69;100.00;72136.72;5115278;28;20220;-78
2021/11/14 01:02:57;;;;;;;21.57;9.33;;;;;;;-145.69;100.00;72138.72;5114935;28;20205;-78
2021/11/14 01:05:26;;;;;;;23.57;9.70;;;;;;;-145.69;100.00;72134.72;5115028;28;20231;-78
2021/11/14 01:07:53;;;;;;;20.77;9.03;;;;;;;-145.69;100.00;72130.75;5115038;28;20194;-77
2021/11/14 01:10:23;;;;;;;22.20;10.40;;;;;;;-145.69;100.00;72130.75;5114581;28;20201;-78
2021/11/14 01:12:49;;;;;;;27.30;10.63;;;;;;;-145.69;100.00;72130.75;5114704;28;20229;-78
2021/11/14 01:15:17;;;;;;;26.07;10.60;;;;;;;-145.69;100.00;72126.78;5114862;28;20258;-78
2021/11/14 01:17:44;;;;;;;25.10;10.70;;;;;;;-145.69;100.00;72118.81;5114547;28;20242;-78
2021/11/14 01:20:13;;;;;;;25.70;11.60;;;;;;;-145.69;100.00;72114.81;5114503;28;20205;-78
2021/11/14 01:22:41;;;;;;;28.37;12.47;;;;;;;-145.69;100.00;72108.84;5114989;28;20234;-77
2021/11/14 01:25:10;;;;;;;28.13;12.27;;;;;;;-145.69;100.00;72098.91;5109989;28;20266;-77
2021/11/14 01:27:37;;;;;;;24.90;11.07;;;;;;;-145.69;100.00;72098.91;5094399;28;20205;-77
2021/11/14 01:30:05;;;;;;;24.27;10.60;;;;;;;-145.69;100.00;72088.97;5093879;28;20297;-77
2021/11/14 01:32:31;;;;;;;24.73;10.40;;;;;;;-145.69;100.00;72090.94;5094066;28;20226;-77
2021/11/14 01:34:58;;;;;;;23.43;10.23;;;;;;;-145.69;100.00;72090.94;5094083;28;20202;-77
2021/11/14 01:37:24;;;;;;;20.10;9.60;;;;;;;-145.69;100.00;72090.94;5094023;28;20247;-77
2021/11/14 01:39:52;;;;;;;22.33;9.23;;;;;;;-145.69;100.00;72086.97;5094165;28;20247;-78
2021/11/14 01:42:19;;;;;;;21.17;9.50;;;;;;;-145.69;100.00;72086.97;5094029;28;20214;-78
2021/11/14 01:44:45;;;;;;;21.03;9.90;;;;;;;-145.69;100.00;72086.97;5093627;28;20672;-78
2021/11/14 01:47:11;;;;;;;24.83;10.37;;;;;;;-145.69;100.00;72086.97;5093358;28;20198;-78
2021/11/14 01:49:38;;;;;;;22.10;10.47;;;;;;;-145.69;100.00;72086.97;5094279;28;20205;-78
2021/11/14 01:52:05;;;;;;;24.73;11.80;;;;;;;-145.69;100.00;72079.00;5092707;28;20464;-78
2021/11/14 01:54:32;;;;;;;21.80;10.27;;;;;;;-145.69;100.00;72084.97;5093722;28;20259;-78
2021/11/14 01:57:00;;;;;;;22.23;9.57;;;;;;;-145.69;100.00;72086.97;5093792;28;20198;-79
2021/11/14 01:59:26;;;;;;;20.93;10.20;;;;;;;-145.69;100.00;72086.97;5093536;28;20228;-79
2021/11/14 02:01:53;;;;;;;22.40;10.00;;;;;;;-145.69;100.00;72090.94;5093473;28;20210;-79
2021/11/14 02:04:20;;;;;;;22.03;9.57;;;;;;;-145.69;100.00;72092.94;5093395;28;20634;-78
2021/11/14 02:06:47;;;;;;;22.80;9.93;;;;;;;-145.69;100.00;72090.94;5093503;28;20225;-78
2021/11/14 02:09:14;;;;;;;21.87;10.40;;;;;;;-145.69;100.00;72088.97;5093716;28;20197;-78
2021/11/14 02:11:42;;;;;;;24.30;10.27;;;;;;;-145.69;100.00;72092.94;5093125;28;20201;-78
2021/11/14 02:14:09;;;;;;;25.40;9.60;;;;;;;-145.69;100.00;72092.94;5093432;28;20213;-79
2021/11/14 02:16:36;;;;;;;24.23;9.07;;;;;;;-145.69;100.00;72088.97;5093179;28;20201;-78
2021/11/14 02:19:03;;;;;;;23.77;9.70;;;;;;;-145.69;100.00;72090.94;5093549;28;20204;-78
2021/11/14 02:21:31;;;;;;;25.53;10.17;;;;;;;-145.69;100.00;72084.97;5093287;28;20206;-78
2021/11/14 02:23:57;;;;;;;22.40;8.60;;;;;;;-145.69;100.00;72082.97;5093186;28;20229;-79
2021/11/14 02:26:24;;;;;;;17.50;8.60;;;;;;;-145.69;100.00;72084.97;5093357;28;20198;-79
2021/11/14 02:28:53;;;;;;;20.63;8.80;;;;;;;-145.69;100.00;72086.97;5093321;28;20198;-78
2021/11/14 02:31:20;;;;;;;19.20;9.00;;;;;;;-145.69;100.00;72082.97;5093265;28;20202;-79
2021/11/14 02:33:46;;;;;;;20.43;9.13;;;;;;;-145.69;100.00;72090.94;5093376;28;20312;-79
2021/11/14 02:36:13;;;;;;;19.53;8.67;;;;;;;-145.69;100.00;72079.00;5092969;28;20194;-78
2021/11/14 02:38:42;;;;;;;19.37;8.77;;;;;;;-145.69;100.00;72082.97;5093263;28;20205;-78
2021/11/14 02:41:10;;;;;;;24.67;9.77;;;;;;;-145.69;100.00;72081.00;5092828;28;20290;-79
2021/11/14 02:43:39;;;;;;;21.60;9.27;;;;;;;-145.69;100.00;72082.97;5093328;28;20297;-78
2021/11/14 02:46:06;;;;;;;20.87;9.13;;;;;;;-145.69;100.00;72079.00;5092997;28;20653;-77
2021/11/14 02:48:33;;;;;;;19.90;9.40;;;;;;;-145.69;100.00;72086.97;5093047;28;20209;-77
2021/11/14 02:51:04;;;;;;;22.80;9.60;;;;;;;-145.69;100.00;72082.97;5093163;28;20206;-77
2021/11/14 02:53:30;;;;;;;21.07;9.80;;;;;;;-145.69;100.00;72082.97;5092983;28;20221;-78
2021/11/14 02:55:59;;;;;;;16.53;7.63;;;;;;;-145.69;100.00;72084.97;5092615;28;20611;-77
2021/11/14 02:58:27;;;;;;;21.23;8.33;;;;;;;-145.69;100.00;72086.97;5093078;28;20198;-78
2021/11/14 03:01:00;;;;;;;20.57;8.87;;;;;;;-145.69;100.00;72081.00;5093019;28;20202;-79
2021/11/14 03:03:27;;;;;;;18.70;8.57;;;;;;;-145.69;100.00;72077.00;5093015;28;20257;-80
2021/11/14 03:05:54;;;;;;;18.63;8.70;;;;;;;-145.69;100.00;72079.00;5092859;28;20202;-80
2021/11/14 03:08:20;;;;;;;17.40;7.60;;;;;;;-145.69;100.00;72079.00;5092759;28;20198;-79
2021/11/14 03:10:47;;;;;;;15.13;7.27;;;;;;;-145.69;100.00;72082.97;5093010;28;20201;-79
2021/11/14 03:13:17;;;;;;;15.40;7.90;;;;;;;-145.69;100.00;72079.00;5092695;28;20233;-79
2021/11/14 03:15:47;;;;;;;18.93;9.00;;;;;;;-145.69;100.00;72081.00;5092527;28;20251;-79
2021/11/14 03:18:15;;;;;;;17.20;7.93;;;;;;;-145.69;100.00;72079.00;5092689;28;20202;-80
2021/11/14 03:20:44;;;;;;;18.67;8.90;;;;;;;-145.69;100.00;72084.97;5092343;28;20205;-79
2021/11/14 03:23:11;;;;;;;19.93;8.23;;;;;;;-145.69;100.00;72079.00;5094438;28;20195;-80
2021/11/14 03:25:38;;;;;;;18.57;8.23;;;;;;;-145.69;100.00;72082.97;5092927;28;20244;-80
2021/11/14 03:28:06;;;;;;;19.33;8.37;;;;;;;-145.69;100.00;72086.97;5092654;28;20243;-80
2021/11/14 03:30:35;;;;;;;18.60;8.87;;;;;;;-145.69;100.00;72086.97;5092884;28;20623;-80
2021/11/14 03:33:02;;;;;;;20.17;8.53;;;;;;;-145.69;100.00;72090.94;5092469;28;20218;-80
2021/11/14 03:35:38;;;;;;;20.27;9.07;;;;;;;-145.69;100.00;72092.94;5092133;28;20217;-80
2021/11/14 03:38:05;;;;;;;20.63;8.07;;;;;;;-145.69;100.00;72090.94;5092580;28;20228;-80
2021/11/14 03:40:32;;;;;;;18.13;7.43;;;;;;;-145.69;100.00;72102.88;5092279;28;20202;-80
2021/11/14 03:42:58;;;;;;;19.73;8.30;;;;;;;-145.69;100.00;72110.84;5092741;28;20198;-79
2021/11/14 03:45:25;;;;;;;20.07;9.07;;;;;;;-145.69;100.00;72118.81;5092634;28;20252;-80
2021/11/14 03:47:53;;;;;;;16.47;7.97;;;;;;;-145.69;100.00;72130.75;5093673;28;20775;-79
2021/11/14 03:50:19;;;;;;;20.63;8.30;;;;;;;-145.69;100.00;72142.69;5096036;28;20718;-80
2021/11/14 03:52:46;;;;;;;22.03;9.47;;;;;;;-145.69;100.00;72146.69;5096249;28;20225;-80
2021/11/14 03:55:14;;;;;;;21.33;9.27;;;;;;;-145.69;100.00;72142.69;5096473;28;20293;-81
2021/11/14 03:57:42;;;;;;;21.53;8.70;;;;;;;-145.69;100.00;72140.69;5095935;28;20657;-81
2021/11/14 04:00:12;;;;;;;19.93;8.13;;;;;;;-145.69;100.00;72144.69;5095942;28;20210;-81
2021/11/14 04:02:38;;;;;;;21.03;8.93;;;;;;;-145.69;100.00;72142.69;5096022;28;20206;-81
2021/11/14 04:05:08;;;;;;;19.13;8.50;;;;;;;-145.69;100.00;72146.69;5096046;28;20206;-82
2021/11/14 04:07:34;;;;;;;18.70;8.07;;;;;;;-145.69;100.00;72148.66;5095691;28;20202;-81
2021/11/14 04:10:01;;;;;;;17.70;8.13;;;;;;;-145.69;100.00;72144.69;5095319;28;20251;-80
2021/11/14 04:12:29;;;;;;;19.43;7.70;;;;;;;-145.69;100.00;72146.69;5095951;28;20202;-81
2021/11/14 04:14:56;;;;;;;18.03;7.90;;;;;;;-145.69;100.00;72154.63;5096034;28;20202;-80
2021/11/14 04:17:22;;;;;;;18.37;8.07;;;;;;;-145.69;100.00;72154.63;5095252;28;20210;-80
2021/11/14 04:19:48;;;;;;;18.03;8.03;;;;;;;-145.69;100.00;72152.66;5095952;28;20239;-81
2021/11/14 04:22:16;;;;;;;20.30;8.37;;;;;;;-145.69;100.00;72150.66;5095628;28;20713;-81
2021/11/14 04:24:43;;;;;;;19.53;8.57;;;;;;;-145.69;100.00;72150.66;5095362;28;20282;-80
2021/11/14 04:27:09;;;;;;;20.90;8.13;;;;;;;-145.69;100.00;72160.59;5095268;28;20615;-81
2021/11/14 04:29:36;;;;;;;24.20;8.90;;;;;;;-145.69;100.00;72168.56;5095642;28;20206;-81
2021/11/14 04:32:02;;;;;;;21.37;8.17;;;;;;;-145.69;100.00;72180.50;5095684;28;20206;-81
2021/11/14 04:34:29;;;;;;;19.50;8.23;;;;;;;-145.69;100.00;72188.47;5095634;28;20226;-81
2021/11/14 04:36:56;;;;;;;19.37;8.43;;;;;;;-145.69;100.00;72198.41;5076784;28;20202;-81
2021/11/14 04:39:24;;;;;;;18.33;8.00;;;;;;;-145.69;100.00;72202.41;5095156;28;20661;-81
2021/11/14 04:41:50;;;;;;;21.57;7.80;;;;;;;-145.69;100.00;72206.38;5095193;28;20201;-82
2021/11/14 04:44:17;;;;;;;17.60;7.27;;;;;;;-145.69;100.00;72208.38;5094504;28;20202;-82
2021/11/14 04:46:43;;;;;;;17.23;7.00;;;;;;;-145.69;100.00;72208.38;5095213;28;20198;-81
2021/11/14 04:49:09;;;;;;;18.90;7.13;;;;;;;-145.69;100.00;72204.38;5095283;28;20198;-79
2021/11/14 04:51:36;;;;;;;21.47;8.20;;;;;;;-145.69;100.00;72204.38;5095173;28;20198;-80
2021/11/14 04:54:02;;;;;;;18.43;7.97;;;;;;;-145.69;100.00;72204.38;5094649;28;20226;-80
2021/11/14 04:56:31;;;;;;;20.40;8.33;;;;;;;-145.69;100.00;72200.41;5094791;28;20281;-80
2021/11/14 04:58:57;;;;;;;18.63;7.50;;;;;;;-145.69;100.00;72186.47;5094689;28;20203;-80
2021/11/14 05:01:23;;;;;;;19.20;7.27;;;;;;;-145.69;100.00;72190.47;5094798;28;20232;-80
2021/11/14 05:03:50;;;;;;;17.93;7.40;;;;;;;-145.69;100.00;72186.47;5094200;28;20561;-80
2021/11/14 05:06:16;;;;;;;19.53;7.33;;;;;;;-145.69;100.00;72178.53;5094740;28;20661;-80
2021/11/14 05:08:43;;;;;;;20.33;7.33;;;;;;;-145.69;100.00;72180.50;5094882;28;20201;-80
2021/11/14 05:11:09;;;;;;;17.03;6.77;;;;;;;-145.69;100.00;72174.53;5094817;28;20231;-80
2021/11/14 05:13:37;;;;;;;13.80;6.87;;;;;;;-145.69;100.00;72174.53;5094634;28;20241;-81
2021/11/14 05:16:04;;;;;;;13.87;5.80;;;;;;;-145.69;100.00;72174.53;5096850;28;20607;-80
2021/11/14 05:18:30;;;;;;;15.33;6.20;;;;;;;-145.69;100.00;72172.53;5094292;28;20569;-81
2021/11/14 05:20:57;;;;;;;23.63;8.27;;;;;;;-145.69;100.00;72166.56;5094502;28;20259;-80
2021/11/14 05:23:23;;;;;;;20.03;8.43;;;;;;;-145.69;100.00;72166.56;5094251;28;20596;-80
2021/11/14 05:25:50;;;;;;;21.40;7.87;;;;;;;-145.69;100.00;72162.59;5094190;28;20202;-79
2021/11/14 05:28:17;;;;;;;19.63;8.30;;;;;;;-145.69;100.00;72164.59;5094663;28;20259;-80
2021/11/14 05:30:46;;;;;;;24.93;8.67;;;;;;;-145.69;100.00;72162.59;5094079;28;20538;-79
2021/11/14 05:33:12;;;;;;;23.03;8.70;;;;;;;-145.69;100.00;72162.59;5094040;28;20236;-79
2021/11/14 05:35:40;;;;;;;23.40;8.67;;;;;;;-145.69;100.00;72164.59;5094260;28;20202;-79
2021/11/14 05:38:07;;;;;;;21.23;8.40;;;;;;;-145.69;100.00;72160.59;5094154;28;20198;-79
2021/11/14 05:40:33;;;;;;;20.57;8.77;;;;;;;-145.69;100.00;72172.53;5094036;28;20197;-79
2021/11/14 05:43:00;;;;;;;24.57;9.70;;;;;;;-145.69;100.00;72178.53;5093904;28;20206;-79
2021/11/14 05:45:26;;;;;;;19.77;8.63;;;;;;;-145.69;100.00;72174.53;5093678;28;20206;-79
2021/11/14 05:47:55;;;;;;;27.77;9.03;;;;;;;-145.69;100.00;72166.56;5093976;28;20198;-78
2021/11/14 05:50:21;;;;;;;24.23;9.50;;;;;;;-145.69;100.00;72166.56;5093953;28;20603;-79
2021/11/14 05:52:48;;;;;;;19.40;8.33;;;;;;;-145.69;100.00;72170.56;5093720;28;20202;-78
2021/11/14 05:55:15;;;;;;;19.53;8.97;;;;;;;-145.69;100.00;72172.53;5093352;28;20210;-78
2021/11/14 05:57:49;;;;;;;20.50;8.23;;;;;;;-145.69;100.00;72166.56;5094051;28;20293;-78
2021/11/14 06:00:21;;;;;;;18.50;7.87;;;;;;;-145.69;100.00;72160.59;5093860;28;20286;-78
2021/11/14 06:02:50;;;;;;;19.70;7.77;;;;;;;-145.69;100.00;72162.59;5093867;28;20202;-78
2021/11/14 06:05:18;;;;;;;18.23;7.70;;;;;;;-145.69;100.00;72158.63;5093524;28;20275;-79
2021/11/14 06:07:46;;;;;;;17.43;7.27;;;;;;;-145.69;100.00;72154.63;5093606;28;20197;-79
2021/11/14 06:10:14;;;;;;;17.17;7.70;;;;;;;-145.69;100.00;72158.63;5093141;28;20198;-79
2021/11/14 06:12:41;;;;;;;15.60;7.07;;;;;;;-145.69;100.00;72162.59;5093699;28;20607;-79
2021/11/14 06:15:11;;;;;;;15.40;6.53;;;;;;;-145.69;100.00;72162.59;5093393;28;20229;-79
2021/11/14 06:17:38;;;;;;;16.10;6.50;;;;;;;-145.69;100.00;72164.59;5093715;28;20195;-79
2021/11/14 06:20:05;;;;;;;13.17;5.57;;;;;;;-145.69;100.00;72166.56;5093371;28;20252;-79
2021/11/14 06:22:33;;;;;;;12.37;5.93;;;;;;;-145.69;100.00;72182.50;5093385;28;20202;-79
2021/11/14 06:25:00;;;;;;;16.07;5.80;;;;;;;-145.69;100.00;72196.44;5093124;28;20233;-79
2021/11/14 06:27:26;;;;;;;16.20;7.37;;;;;;;-145.69;100.00;72194.44;5093416;28;20202;-79
2021/11/14 06:29:53;;;;;;;15.33;6.77;;;;;;;-145.69;100.00;72198.41;5093476;28;20198;-79
2021/11/14 06:32:19;;;;;;;15.50;7.07;;;;;;;-145.69;100.00;72198.41;5093281;28;20202;-78
2021/11/14 06:34:46;;;;;;;13.23;6.07;;;;;;;-145.69;100.00;72198.41;5093154;28;20222;-79
2021/11/14 06:37:12;;;;;;;15.10;6.57;;;;;;;-145.69;100.00;72190.47;5093240;28;20317;-79
2021/11/14 06:39:40;;;;;;;14.03;6.67;;;;;;;-145.69;100.00;72194.44;5093425;28;20198;-79
2021/11/14 06:42:07;;;;;;;14.93;6.97;;;;;;;-145.69;100.00;72190.47;5093302;28;20202;-79
2021/11/14 06:44:34;;;;;;;18.03;7.80;;;;;;;-145.69;100.00;72182.50;5093244;28;20202;-79
2021/11/14 06:47:01;;;;;;;15.73;6.83;;;;;;;-145.69;100.00;72172.53;5092836;28;20206;-78
2021/11/14 06:49:27;;;;;;;13.83;6.20;;;;;;;-145.69;100.00;72168.56;5093053;28;20244;-79
2021/11/14 06:51:54;;;;;;;15.50;6.53;;;;;;;-145.69;100.00;72162.59;5093574;28;20562;-78
2021/11/14 06:54:20;;;;;;;15.03;7.00;;;;;;;-145.69;100.00;72164.59;5093160;28;20702;-79
2021/11/14 06:56:48;;;;;;;12.33;5.97;;;;;;;-145.69;100.00;72158.63;5093123;28;20194;-78
2021/11/14 06:59:15;;;;;;;13.23;5.87;;;;;;;-145.69;100.00;72156.63;5092982;28;20606;-79
2021/11/14 07:01:41;;;;;;;14.13;6.57;;;;;;;-145.69;100.00;72160.59;5092878;28;20849;-79
2021/11/14 07:04:07;;;;;;;17.03;7.73;;;;;;;-145.69;100.00;72160.59;5092992;28;20660;-79
2021/11/14 07:06:34;;;;;;;18.50;7.87;;;;;;;-145.69;100.00;72154.63;5093281;28;20202;-78
2021/11/14 07:09:00;;;;;;;19.27;8.40;;;;;;;-145.69;100.00;72150.66;5092647;28;20564;-79
2021/11/14 07:11:27;;;;;;;22.10;8.37;;;;;;;-145.69;100.00;72150.66;5093111;28;20198;-78
2021/11/14 07:13:55;;;;;;;19.43;8.07;;;;;;;-145.69;100.00;72140.69;5092835;28;20230;-78
2021/11/14 07:16:22;;;;;;;20.77;8.93;;;;;;;-145.69;100.00;72150.66;5092726;28;20205;-79
2021/11/14 07:18:48;;;;;;;20.60;8.60;;;;;;;-145.69;100.00;72154.63;5093528;28;20206;-79
2021/11/14 07:21:15;;;;;;;24.90;9.37;;;;;;;-145.69;100.00;72152.66;5094659;28;20702;-79
2021/11/14 07:23:41;;;;;;;21.20;9.70;;;;;;;-145.69;100.00;72152.66;5095258;28;20249;-79
2021/11/14 07:26:08;;;;;;;23.80;9.07;;;;;;;-145.69;100.00;72144.69;5096874;28;20209;-78
2021/11/14 07:28:34;;;;;;;30.27;11.57;;;;;;;-145.69;100.00;72134.72;5096411;28;20247;-79
2021/11/14 07:31:02;;;;;;;42.47;16.07;;;;;;;-145.69;100.00;72130.75;5096377;28;20205;-78
2021/11/14 07:33:28;;;;;;;19.60;9.67;;;;;;;-145.69;100.00;72118.81;5096305;28;20684;-79
2021/11/14 07:35:55;;;;;;;19.83;9.23;;;;;;;-145.69;100.00;72110.84;5096477;28;20220;-78
2021/11/14 07:38:22;;;;;;;32.17;12.27;;;;;;;-145.69;100.00;72106.88;5096792;28;20596;-79
2021/11/14 07:40:48;;;;;;;21.30;9.07;;;;;;;-145.69;100.00;72110.84;5096680;28;20194;-78
2021/11/14 07:43:15;;;;;;;19.90;9.07;;;;;;;-145.69;100.00;72120.81;5097352;28;20649;-78
2021/11/14 07:45:41;;;;;;;26.30;10.33;;;;;;;-145.69;100.00;72122.78;5096439;28;20649;-78
2021/11/14 07:48:10;;;;;;;17.40;7.97;;;;;;;-145.69;100.00;72132.75;5096561;28;20194;-79
2021/11/14 07:50:37;;;;;;;19.53;7.80;;;;;;;-145.69;100.00;72134.72;5096198;28;20243;-79
2021/11/14 07:53:04;;;;;;;17.93;7.80;;;;;;;-145.69;100.00;72144.69;5096264;28;20205;-78
2021/11/14 07:55:31;;;;;;;20.30;8.17;;;;;;;-145.69;100.00;72134.72;5096190;28;20226;-79
2021/11/14 07:58:00;;;;;;;20.30;8.60;;;;;;;-145.69;100.00;72136.72;5096302;28;20602;-78
2021/11/14 08:00:27;;;;;;;20.10;8.47;;;;;;;-145.69;100.00;72134.72;5095798;28;20732;-79
2021/11/14 08:02:54;;;;;;;22.33;9.00;;;;;;;-145.69;100.00;72122.78;5095969;28;20201;-79
2021/11/14 08:05:22;;;;;;;25.23;9.30;;;;;;;-145.69;100.00;72116.81;5096395;28;20198;-79
2021/11/14 08:07:49;;;;;;;22.03;8.97;;;;;;;-145.69;100.00;72102.88;5096250;28;20200;-78
2021/11/14 08:10:18;;;;;;;22.43;9.13;;;;;;;-145.69;100.00;72094.94;5095790;28;20198;-78
2021/11/14 08:12:44;;;;;;;19.10;8.23;;;;;;;-145.69;100.00;72092.94;5095899;28;20652;-79
2021/11/14 08:15:11;;;;;;;19.43;8.33;;;;;;;-145.69;100.00;72075.03;5095552;28;20592;-79
2021/11/14 08:17:38;;;;;;;19.97;8.80;;;;;;;-145.69;100.00;72069.06;5096023;28;20198;-79
2021/11/14 08:20:06;;;;;;;19.53;8.57;;;;;;;-145.69;100.00;72067.06;5095550;28;20202;-79
2021/11/14 08:22:35;;;;;;;19.47;8.57;;;;;;;-145.69;100.00;72057.13;5095556;28;20317;-79
2021/11/14 08:25:01;;;;;;;19.20;8.50;;;;;;;-145.69;100.00;72037.22;5094917;28;20229;-78
2021/11/14 08:27:30;;;;;;;17.40;8.07;;;;;;;-145.69;100.00;72031.25;5095350;28;20198;-77
2021/11/14 08:29:57;;;;;;;18.53;8.07;;;;;;;-145.69;100.00;72031.25;5095372;28;20606;-77
2021/11/14 08:32:23;;;;;;;20.53;8.27;;;;;;;-145.69;100.00;72035.22;5095303;28;20213;-78
2021/11/14 08:34:50;;;;;;;19.77;8.17;;;;;;;-145.69;100.00;72019.31;5094970;28;20225;-77
2021/11/14 08:37:16;;;;;;;19.57;8.17;;;;;;;-145.69;100.00;72023.28;5094642;28;20648;-78
2021/11/14 08:39:45;;;;;;;15.87;6.93;;;;;;;-145.69;100.00;72031.25;5095168;28;20661;-77
2021/11/14 08:42:12;;;;;;;16.43;7.27;;;;;;;-145.69;100.00;72001.38;5095220;28;20251;-78
2021/11/14 08:44:39;;;;;;;16.27;6.70;;;;;;;-145.69;100.00;71991.44;5095220;28;20251;-78
2021/11/14 08:47:06;;;;;;;17.77;7.67;;;;;;;-145.69;100.00;71979.50;5094790;28;20537;-78
2021/11/14 08:49:33;;;;;;;19.47;7.33;;;;;;;-145.69;100.00;71983.47;5095194;28;20572;-78
2021/11/14 08:51:59;;;;;;;14.67;6.67;;;;;;;-145.69;100.00;72009.34;5094925;28;20236;-78
2021/11/14 08:54:26;;;;;;;15.30;6.60;;;;;;;-145.69;100.00;71995.41;5094914;28;20245;-78
2021/11/14 08:56:54;;;;;;;16.30;7.43;;;;;;;-145.69;100.00;71963.56;5094733;28;20198;-78
2021/11/14 08:59:20;;;;;;;17.47;7.47;;;;;;;-145.69;100.00;71971.53;5093913;28;20193;-78
2021/11/14 09:01:47;;;;;;;18.13;7.97;;;;;;;-145.69;100.00;71961.59;5094805;28;20565;-79
2021/11/14 09:04:14;;;;;;;16.37;6.93;;;;;;;-145.69;100.00;71931.72;5094789;28;20542;-78
2021/11/14 09:06:41;;;;;;;14.93;6.30;;;;;;;-145.69;100.00;71951.63;5094654;28;20247;-79
2021/11/14 09:09:11;;;;;;;18.87;7.63;;;;;;;-145.69;100.00;71941.69;5094470;28;20667;-78
2021/11/14 09:11:38;;;;;;;18.13;7.37;;;;;;;-145.69;100.00;71919.78;5097329;28;20281;-79
2021/11/14 09:14:06;;;;;;;19.40;7.57;;;;;;;-145.69;100.00;71907.84;5094136;28;20225;-79
2021/11/14 09:16:33;;;;;;;17.27;7.60;;;;;;;-145.69;100.00;71891.94;5094892;28;20198;-79
2021/11/14 09:18:59;;;;;;;17.60;7.63;;;;;;;-145.69;100.00;71864.06;5094595;28;20209;-79
2021/11/14 09:21:26;;;;;;;18.80;7.37;;;;;;;-145.69;100.00;71909.84;5094301;28;20645;-79
2021/11/14 09:23:52;;;;;;;19.63;8.23;;;;;;;-145.69;100.00;71883.97;5094282;28;20562;-79
2021/11/14 09:26:19;;;;;;;18.53;7.60;;;;;;;-145.69;100.00;71864.06;5094594;28;20607;-78
2021/11/14 09:28:46;;;;;;;17.43;7.80;;;;;;;-145.69;100.00;71848.16;5094636;28;20238;-79
2021/11/14 09:31:14;;;;;;;16.90;7.67;;;;;;;-145.69;100.00;71858.09;5094211;28;20198;-78
2021/11/14 09:33:44;;;;;;;18.10;7.73;;;;;;;-145.69;100.00;71864.06;5094126;28;20210;-78
2021/11/14 09:36:11;;;;;;;16.00;7.27;;;;;;;-145.69;100.00;71868.06;5093977;28;20233;-79
2021/11/14 09:38:37;;;;;;;17.10;7.67;;;;;;;-145.69;100.00;71887.94;5094044;28;20206;-79
2021/11/14 09:41:06;;;;;;;17.13;7.10;;;;;;;-145.69;100.00;71915.81;5094155;28;20260;-79
2021/11/14 09:43:33;;;;;;;18.93;7.73;;;;;;;-145.69;100.00;71911.84;5093888;28;20209;-79
2021/11/14 09:46:00;;;;;;;17.53;7.57;;;;;;;-145.69;100.00;71899.88;5093162;28;20201;-78
2021/11/14 09:48:29;;;;;;;16.83;7.27;;;;;;;-145.69;100.00;71878.00;5094026;28;20198;-79
2021/11/14 09:50:57;;;;;;;14.57;6.83;;;;;;;-145.69;100.00;71856.09;5094353;28;20201;-78
2021/11/14 09:53:27;;;;;;;15.23;6.83;;;;;;;-145.69;100.00;71852.13;5094181;28;20660;-79
2021/11/14 09:55:54;;;;;;;17.10;7.27;;;;;;;-145.69;100.00;71832.22;5093895;28;20279;-79
2021/11/14 09:58:21;;;;;;;18.47;8.03;;;;;;;-145.69;98.17;71802.38;5094491;28;20221;-79
2021/11/14 10:00:48;;;;;;;20.60;8.60;;;;;;;-145.69;100.00;71806.34;5093798;28;20198;-78
2021/11/14 10:03:15;;;;;;;16.87;7.03;;;;;;;-145.69;100.00;71852.13;5094140;28;20572;-78
2021/11/14 10:05:43;;;;;;;17.23;7.77;;;;;;;-145.69;99.73;71860.09;5094321;28;20206;-78
2021/11/14 10:08:11;;;;;;;17.13;7.50;;;;;;;-145.69;100.00;71899.88;5094028;28;20229;-78
2021/11/14 10:10:46;;;;;;;16.97;7.33;;;;;;;-145.69;100.00;71935.72;5094205;28;20661;-78
2021/11/14 10:13:15;;;;;;;18.33;7.87;;;;;;;-145.69;100.00;71947.66;5094098;28;20198;-78
2021/11/14 10:15:42;;;;;;;15.20;6.70;;;;;;;-145.69;100.00;71941.69;5093790;28;20225;-79
2021/11/14 10:18:08;;;;;;;17.23;7.27;;;;;;;-145.69;100.00;71955.63;5093680;28;20198;-78
2021/11/14 10:20:36;;;;;;;17.43;7.67;;;;;;;-145.69;100.00;71983.47;5093823;28;20232;-78
2021/11/14 10:23:07;;;;;;;18.47;7.93;;;;;;;-145.69;100.00;71969.53;5093566;28;20243;-78
2021/11/14 10:25:33;;;;;;;21.10;9.00;;;;;;;-145.69;100.00;71967.56;5093415;28;20696;-78
2021/11/14 10:28:02;;;;;;;26.17;10.38;;;;;;;-145.69;100.00;71971.53;5092708;28;20496;-78
2021/11/14 10:30:31;;;;;;;17.40;7.90;;;;;;;-145.69;100.00;71983.47;5092051;28;20667;-78
2021/11/14 10:33:02;;;;;;;18.40;8.43;;;;;;;-145.69;100.00;71957.59;5092632;28;20209;-80
2021/11/14 10:35:30;;;;;;;18.77;8.30;;;;;;;-145.69;100.00;71955.63;5091601;28;20265;-78
2021/11/14 10:37:59;;;;;;;19.27;8.40;;;;;;;-145.69;100.00;71943.69;5092393;28;20285;-78
2021/11/14 10:40:31;;;;;;;16.40;7.63;;;;;;;-145.69;100.00;71931.72;5093017;28;20198;-77
2021/11/14 10:43:00;;;;;;;19.30;9.03;;;;;;;-145.69;100.00;71915.81;5093045;28;20198;-79
2021/11/14 10:45:27;;;;;;;17.57;8.50;;;;;;;-145.69;100.00;71889.94;5093226;28;20572;-79
2021/11/14 10:47:55;;;;;;;19.40;8.53;;;;;;;-145.69;100.00;71880.00;5092802;28;20201;-78
2021/11/14 10:50:24;;;;;;;17.43;8.00;;;;;;;-145.69;100.00;71824.25;5093056;28;20202;-78
2021/11/14 10:52:54;;;;;;;17.60;7.73;;;;;;;-145.69;100.00;71812.31;5092849;28;20709;-79
2021/11/14 10:55:22;;;;;;;17.60;8.00;;;;;;;-145.69;100.00;71784.47;5093104;28;20232;-78
2021/11/14 10:57:50;;;;;;;17.13;7.47;;;;;;;-145.69;96.04;71774.50;5095905;28;20606;-79
2021/11/14 11:00:20;;;;;;;18.17;7.83;;;;;;;-145.69;97.91;71772.53;5097226;28;20209;-79
2021/11/14 11:02:47;;;;;;;16.50;7.77;;;;;;;-145.69;97.13;71746.66;5096849;28;20695;-78